createdAt,value
2019-05-20T05:09:23.690Z,5.47
2019-05-20T05:11:52.165Z,9.77
2019-05-20T05:14:20.665Z,7.30
2019-05-20T05:16:49.357Z,5.43
2019-05-20T05:19:17.840Z,7.53
2019-05-20T05:21:46.328Z,8.63
2019-05-20T05:24:14.817Z,8.27
2019-05-20T05:26:43.299Z,7.20
2019-05-20T05:29:11.782Z,6.90
2019-05-20T05:31:40.589Z,7.53
2019-05-20T05:34:09.632Z,6.53
2019-05-20T05:36:38.112Z,6.17
2019-05-20T05:39:06.723Z,7.30
2019-05-20T05:41:35.449Z,6.70
2019-05-20T05:44:04.648Z,7.87
2019-05-20T05:46:33.674Z,14.70
2019-05-20T05:49:02.164Z,7.70
2019-05-20T05:51:31.027Z,10.33
2019-05-20T05:53:59.657Z,9.37
2019-05-20T05:56:28.484Z,10.17
2019-05-20T05:58:57.028Z,7.27
2019-05-20T06:01:25.535Z,10.40
2019-05-20T06:03:54.018Z,9.53
2019-05-20T06:06:22.546Z,10.93
2019-05-20T06:08:51.027Z,9.27
2019-05-20T06:11:19.512Z,6.83
2019-05-20T06:13:48.318Z,8.97
2019-05-20T06:16:33.589Z,7.37
2019-05-20T06:18:45.319Z,6.77
2019-05-20T06:21:13.806Z,5.87
2019-05-20T06:23:42.283Z,6.03
2019-05-20T06:26:10.776Z,7.87
2019-05-20T06:28:39.266Z,7.67
2019-05-20T06:31:08.066Z,6.77
2019-05-20T06:33:36.683Z,5.30
2019-05-20T06:36:05.160Z,6.13
2019-05-20T06:38:45.406Z,6.30
2019-05-20T06:41:13.912Z,9.17
2019-05-20T06:43:42.644Z,7.80
2019-05-20T06:46:11.124Z,9.17
2019-05-20T06:48:39.623Z,5.53
2019-05-20T06:51:08.301Z,5.13
2019-05-20T06:53:36.835Z,8.47
2019-05-20T06:56:05.106Z,8.43
2019-05-20T06:58:33.569Z,8.97
2019-05-20T07:01:02.157Z,8.40
2019-05-20T07:03:30.654Z,9.13
2019-05-20T07:05:59.136Z,9.53
2019-05-20T07:08:27.379Z,10.53
2019-05-20T07:10:56.041Z,9.67
2019-05-20T07:13:24.519Z,10.70
2019-05-20T07:15:53.361Z,9.00
2019-05-20T07:18:22.043Z,10.93
2019-05-20T07:20:50.396Z,10.93
2019-05-20T07:23:18.879Z,7.90
2019-05-20T07:25:47.408Z,8.43
2019-05-20T07:28:16.049Z,8.50
2019-05-20T07:30:44.666Z,7.57
2019-05-20T07:33:13.135Z,9.17
2019-05-20T07:35:41.653Z,9.07
2019-05-20T07:38:10.118Z,9.43
2019-05-20T07:40:38.933Z,9.43
2019-05-20T07:43:07.406Z,8.13
2019-05-20T07:45:35.926Z,8.33
2019-05-20T07:48:04.430Z,10.50
2019-05-20T07:50:33.879Z,7.77
2019-05-20T07:53:02.722Z,7.13
2019-05-20T07:55:31.214Z,7.70
2019-05-20T07:58:00.210Z,7.50
2019-05-20T08:00:28.692Z,8.03
2019-05-20T08:02:57.707Z,7.93
2019-05-20T08:05:26.184Z,7.80
2019-05-20T08:07:54.687Z,8.10
2019-05-20T08:10:23.446Z,6.23
2019-05-20T08:12:51.920Z,8.90
2019-05-20T08:15:20.397Z,7.10
2019-05-20T08:17:49.069Z,8.17
2019-05-20T08:20:17.797Z,7.33
2019-05-20T08:22:46.261Z,7.63
2019-05-20T08:25:14.765Z,7.93
2019-05-20T08:27:43.252Z,8.97
2019-05-20T08:30:14.225Z,10.20
2019-05-20T08:32:40.487Z,10.97
2019-05-20T08:35:09.234Z,5.10
2019-05-20T08:37:45.327Z,9.47
2019-05-20T08:40:06.072Z,5.27
2019-05-20T08:42:34.612Z,9.57
2019-05-20T08:45:03.588Z,11.03
2019-05-20T08:47:32.991Z,7.70
2019-05-20T08:50:00.434Z,8.60
2019-05-20T08:52:28.855Z,9.00
2019-05-20T08:54:57.342Z,9.80
2019-05-20T08:57:25.803Z,7.53
2019-05-20T08:59:54.266Z,8.83
2019-05-20T09:02:22.755Z,8.80
2019-05-20T09:04:51.225Z,8.77
2019-05-20T09:07:19.691Z,8.63
2019-05-20T09:09:48.498Z,9.57
2019-05-20T09:12:16.970Z,6.30
2019-05-20T09:14:45.473Z,6.87
2019-05-20T09:17:13.951Z,5.83
2019-05-20T09:19:46.695Z,9.70
2019-05-20T09:22:11.298Z,7.13
2019-05-20T09:24:40.011Z,4.50
2019-05-20T09:27:08.291Z,6.50
2019-05-20T09:29:38.176Z,5.43
2019-05-20T09:32:05.235Z,6.47
2019-05-20T09:34:33.958Z,7.73
2019-05-20T09:37:02.423Z,7.53
2019-05-20T09:39:30.713Z,6.93
2019-05-20T09:41:59.461Z,10.33
2019-05-20T09:44:28.286Z,7.63
2019-05-20T09:46:56.969Z,7.03
2019-05-20T09:49:25.308Z,7.70
2019-05-20T09:51:53.715Z,7.47
2019-05-20T09:54:22.198Z,7.93
2019-05-20T09:56:50.461Z,9.10
2019-05-20T09:59:18.955Z,8.93
2019-05-20T10:01:49.595Z,7.73
2019-05-20T10:04:15.923Z,8.33
2019-05-20T10:06:44.381Z,9.10
2019-05-20T10:09:12.665Z,10.83
2019-05-20T10:11:41.126Z,10.63
2019-05-20T10:14:10.217Z,9.73
2019-05-20T10:16:38.710Z,12.50
2019-05-20T10:19:07.337Z,10.90
2019-05-20T10:21:35.810Z,8.67
2019-05-20T10:24:04.905Z,12.27
2019-05-20T10:26:33.387Z,9.80
2019-05-20T10:29:02.109Z,7.07
2019-05-20T10:31:30.724Z,9.53
2019-05-20T10:33:59.170Z,10.83
2019-05-20T10:36:28.243Z,10.67
2019-05-20T10:38:59.341Z,14.43
2019-05-20T10:41:25.332Z,14.50
2019-05-20T10:43:54.251Z,13.73
2019-05-20T10:46:23.111Z,16.83
2019-05-20T10:48:51.645Z,12.67
2019-05-20T10:51:20.138Z,11.60
2019-05-20T10:53:48.633Z,14.90
2019-05-20T10:56:17.127Z,15.23
2019-05-20T10:58:45.632Z,12.93
2019-05-20T11:01:14.103Z,7.17
2019-05-20T11:03:42.361Z,14.30
2019-05-20T11:06:10.862Z,13.63
2019-05-20T11:08:39.347Z,11.53
2019-05-20T11:11:08.072Z,11.90
2019-05-20T11:13:36.566Z,13.53
2019-05-20T11:16:05.114Z,14.30
2019-05-20T11:18:33.886Z,14.60
2019-05-20T11:21:02.476Z,11.53
2019-05-20T11:23:31.300Z,15.43
2019-05-20T11:26:00.188Z,14.90
2019-05-20T11:28:29.054Z,11.00
2019-05-20T11:30:57.598Z,15.33
2019-05-20T11:33:26.104Z,9.73
2019-05-20T11:35:54.678Z,15.13
2019-05-20T11:38:23.289Z,15.83
2019-05-20T11:40:51.792Z,12.93
2019-05-20T11:43:20.486Z,15.97
2019-05-20T11:45:49.562Z,11.73
2019-05-20T11:48:18.065Z,14.47
2019-05-20T11:50:46.573Z,14.73
2019-05-20T11:53:14.855Z,17.53
2019-05-20T11:55:43.716Z,17.30
2019-05-20T11:58:16.220Z,13.80
2019-05-20T12:00:40.864Z,18.40
2019-05-20T12:03:09.389Z,19.47
2019-05-20T12:05:38.544Z,18.40
2019-05-20T12:08:07.056Z,22.53
2019-05-20T12:10:35.653Z,17.80
2019-05-20T12:13:04.146Z,17.70
2019-05-20T12:15:32.977Z,19.20
2019-05-20T12:18:01.853Z,18.57
2019-05-20T12:20:30.355Z,22.00
2019-05-20T12:22:59.155Z,16.03
2019-05-20T12:25:28.008Z,22.20
2019-05-20T12:27:56.739Z,22.33
2019-05-20T12:30:25.056Z,23.30
2019-05-20T12:33:17.255Z,18.70
2019-05-20T12:35:22.374Z,20.03
2019-05-20T12:37:51.139Z,14.90
2019-05-20T12:40:19.629Z,12.50
2019-05-20T12:42:48.762Z,10.77
2019-05-20T12:45:17.267Z,13.87
2019-05-20T12:47:46.035Z,18.17
2019-05-20T12:50:14.799Z,23.70
2019-05-20T12:52:43.308Z,11.70
2019-05-20T12:55:11.841Z,11.70
2019-05-20T12:57:40.956Z,15.67
2019-05-20T13:00:09.493Z,24.50
2019-05-20T13:02:37.994Z,18.57
2019-05-20T13:05:06.753Z,11.53
2019-05-20T13:07:35.518Z,14.20
2019-05-20T13:10:05.243Z,15.17
2019-05-20T13:12:33.750Z,18.60
2019-05-20T13:15:02.232Z,19.53
2019-05-20T13:17:30.783Z,19.83
2019-05-20T13:19:59.258Z,20.37
2019-05-20T13:22:28.098Z,22.07
2019-05-20T13:24:56.359Z,19.87
2019-05-20T13:27:25.030Z,23.83
2019-05-20T13:29:53.819Z,26.23
2019-05-20T13:32:22.635Z,22.07
2019-05-20T13:34:50.912Z,16.67
2019-05-20T13:37:19.423Z,22.80
2019-05-20T13:39:48.339Z,25.97
2019-05-20T13:42:16.843Z,23.77
2019-05-20T13:44:45.358Z,24.47
2019-05-20T13:47:13.635Z,26.43
2019-05-20T13:49:42.238Z,30.70
2019-05-20T13:52:10.722Z,27.23
2019-05-20T13:54:39.221Z,28.67
2019-05-20T13:57:12.331Z,31.37
2019-05-20T13:59:36.618Z,26.00
2019-05-20T14:02:05.460Z,29.27
2019-05-20T14:04:34.238Z,23.43
2019-05-20T14:07:02.743Z,30.57
2019-05-20T14:09:31.243Z,40.67
2019-05-20T14:11:59.775Z,28.87
2019-05-20T14:14:28.742Z,31.10
2019-05-20T14:16:56.981Z,30.97
2019-05-20T14:19:25.544Z,44.13
2019-05-20T14:21:54.314Z,34.77
2019-05-20T14:24:23.073Z,37.27
2019-05-20T14:26:51.753Z,33.13
2019-05-20T14:29:20.373Z,28.87
2019-05-20T14:31:48.884Z,30.70
2019-05-20T14:34:17.655Z,33.93
2019-05-20T14:36:46.150Z,37.17
2019-05-20T14:39:15.286Z,36.00
2019-05-20T14:41:43.577Z,31.57
2019-05-20T14:44:12.082Z,29.47
2019-05-20T14:46:40.867Z,35.10
2019-05-20T14:49:09.399Z,27.50
2019-05-20T14:51:38.046Z,29.77
2019-05-20T14:54:06.545Z,30.00
2019-05-20T14:56:35.147Z,25.43
2019-05-20T14:59:03.632Z,26.03
2019-05-20T15:01:31.877Z,23.23
2019-05-20T15:04:00.386Z,25.80
2019-05-20T15:06:29.384Z,27.57
2019-05-20T15:08:58.249Z,21.30
2019-05-20T15:11:37.580Z,18.00
2019-05-20T15:13:59.898Z,18.10
2019-05-20T15:16:24.755Z,14.87
2019-05-20T15:18:53.827Z,12.70
2019-05-20T15:21:27.679Z,15.50
2019-05-20T15:23:51.346Z,17.77
2019-05-20T15:26:20.212Z,13.97
2019-05-20T15:28:48.828Z,12.20
2019-05-20T15:31:17.322Z,14.57
2019-05-20T15:33:45.818Z,13.33
2019-05-20T15:36:14.451Z,13.63
2019-05-20T15:38:42.945Z,12.70
2019-05-20T15:41:11.489Z,12.27
2019-05-20T15:43:40.296Z,11.97
2019-05-20T15:46:08.787Z,11.07
2019-05-20T15:48:37.594Z,12.07
2019-05-20T15:51:06.356Z,13.93
2019-05-20T15:53:35.251Z,14.63
2019-05-20T15:56:03.963Z,13.37
2019-05-20T15:58:32.871Z,15.00
2019-05-20T16:01:01.709Z,12.90
2019-05-20T16:03:30.210Z,15.83
2019-05-20T16:05:59.945Z,13.40
2019-05-20T16:08:27.447Z,16.60
2019-05-20T16:10:56.189Z,17.93
2019-05-20T16:13:24.593Z,18.63
2019-05-20T16:15:53.069Z,14.77
2019-05-20T16:18:21.567Z,17.03
2019-05-20T16:20:50.059Z,14.90
2019-05-20T16:23:18.550Z,14.37
2019-05-20T16:25:47.472Z,18.80
2019-05-20T16:28:15.931Z,17.10
2019-05-20T16:30:44.422Z,18.47
2019-05-20T16:33:12.948Z,18.40
2019-05-20T16:35:41.593Z,21.40
2019-05-20T16:38:10.376Z,18.80
2019-05-20T16:40:39.368Z,22.67
2019-05-20T16:43:08.214Z,22.97
2019-05-20T16:45:36.721Z,18.90
2019-05-20T16:48:05.382Z,17.27
2019-05-20T16:50:34.256Z,17.27
2019-05-20T16:53:03.014Z,13.87
2019-05-20T16:55:31.642Z,16.70
2019-05-20T16:58:00.491Z,13.33
2019-05-20T17:00:31.842Z,12.50
2019-05-20T17:02:57.271Z,13.20
2019-05-20T17:05:25.758Z,15.43
2019-05-20T17:07:54.247Z,17.60
2019-05-20T17:10:22.752Z,21.13
2019-05-20T17:12:51.598Z,14.93
2019-05-20T17:15:20.129Z,21.90
2019-05-20T17:17:48.635Z,19.00
2019-05-20T17:20:16.901Z,18.67
2019-05-20T17:22:45.405Z,13.33
2019-05-20T17:25:14.333Z,14.33
2019-05-20T17:27:43.208Z,12.67
2019-05-20T17:30:11.957Z,13.10
2019-05-20T17:32:40.820Z,11.60
2019-05-20T17:35:09.579Z,12.57
2019-05-20T17:37:38.075Z,9.53
2019-05-20T17:40:06.637Z,11.27
2019-05-20T17:42:35.306Z,12.63
2019-05-20T17:45:03.864Z,12.07
2019-05-20T17:47:32.131Z,13.37
2019-05-20T17:50:00.656Z,11.17
2019-05-20T17:52:29.158Z,13.53
2019-05-20T17:54:57.984Z,13.30
2019-05-20T17:57:26.522Z,14.40
2019-05-20T17:59:54.986Z,11.07
2019-05-20T18:02:23.739Z,12.53
2019-05-20T18:04:52.612Z,12.80
2019-05-20T18:07:21.134Z,15.97
2019-05-20T18:09:49.902Z,15.40
2019-05-20T18:12:18.353Z,11.17
2019-05-20T18:14:49.789Z,19.40
2019-05-20T18:17:18.282Z,17.30
2019-05-20T18:19:46.568Z,14.47
2019-05-20T18:22:15.185Z,15.27
2019-05-20T18:24:43.680Z,16.63
2019-05-20T18:27:12.329Z,13.43
2019-05-20T18:29:40.928Z,18.93
2019-05-20T18:32:09.419Z,14.73
2019-05-20T18:34:38.214Z,15.17
2019-05-20T18:37:06.902Z,16.77
2019-05-20T18:39:35.394Z,11.37
2019-05-20T18:42:04.149Z,12.13
2019-05-20T18:44:32.643Z,14.47
2019-05-20T18:47:01.810Z,15.90
2019-05-20T18:49:30.691Z,12.07
2019-05-20T18:51:59.538Z,16.93
2019-05-20T18:54:28.039Z,22.27
2019-05-20T18:56:56.752Z,19.90
2019-05-20T18:59:25.239Z,21.80
2019-05-20T19:02:04.490Z,20.33
2019-05-20T19:04:22.229Z,25.30
2019-05-20T19:06:50.730Z,25.50
2019-05-20T19:09:19.241Z,22.47
2019-05-20T19:11:47.531Z,22.97
2019-05-20T19:14:16.660Z,16.30
2019-05-20T19:16:45.164Z,22.37
2019-05-20T19:19:14.078Z,21.53
2019-05-20T19:21:44.595Z,22.27
2019-05-20T19:24:13.231Z,27.57
2019-05-20T19:26:41.723Z,22.73
2019-05-20T19:29:10.586Z,24.33
2019-05-20T19:31:39.120Z,26.60
2019-05-20T19:34:07.823Z,24.53
2019-05-20T19:36:36.446Z,25.97
2019-05-20T19:39:06.542Z,24.03
2019-05-20T19:41:35.137Z,25.50
2019-05-20T19:44:03.654Z,18.17
2019-05-20T19:46:32.169Z,20.00
2019-05-20T19:49:00.787Z,26.00
2019-05-20T19:51:29.756Z,23.10
2019-05-20T19:53:58.499Z,15.77
2019-05-20T19:56:27.017Z,22.10
2019-05-20T19:58:55.659Z,20.93
2019-05-20T20:01:24.562Z,19.80
2019-05-20T20:03:53.436Z,24.03
2019-05-20T20:06:22.169Z,25.27
2019-05-20T20:08:51.303Z,26.23
2019-05-20T20:11:19.579Z,22.17
2019-05-20T20:13:48.091Z,24.43
2019-05-20T20:16:18.124Z,29.27
2019-05-20T20:18:45.688Z,31.97
2019-05-20T20:21:14.574Z,28.07
2019-05-20T20:23:43.450Z,21.67
2019-05-20T20:26:11.975Z,21.23
2019-05-20T20:28:40.749Z,26.63
2019-05-20T20:31:11.101Z,23.27
2019-05-20T20:33:37.974Z,28.07
2019-05-20T20:36:06.896Z,28.27
2019-05-20T20:38:35.360Z,23.57
2019-05-20T20:41:03.883Z,24.63
2019-05-20T20:43:32.327Z,26.43
2019-05-20T20:46:01.282Z,23.57
2019-05-20T20:48:29.770Z,25.17
2019-05-20T20:50:58.655Z,28.27
2019-05-20T20:53:27.171Z,29.27
2019-05-20T20:55:55.679Z,18.83
